createdAt,value
2018-06-18T00:01:24.594Z,13.40
2018-06-18T00:06:21.330Z,13.40
2018-06-18T00:08:49.814Z,13.40
2018-06-18T00:11:18.346Z,13.40
2018-06-18T00:13:46.782Z,13.40
2018-06-18T00:16:15.238Z,13.40
2018-06-18T00:18:43.727Z,13.40
2018-06-18T00:21:12.174Z,13.40
2018-06-18T00:23:40.774Z,13.40
2018-06-18T00:26:09.278Z,13.30
2018-06-18T00:28:37.755Z,13.30
2018-06-18T00:31:06.409Z,13.30
2018-06-18T00:36:03.165Z,13.20
2018-06-18T00:38:31.650Z,13.20
2018-06-18T00:41:00.259Z,13.20
2018-06-18T00:43:28.724Z,13.20
2018-06-18T00:45:57.303Z,13.20
2018-06-18T00:50:53.970Z,13.20
2018-06-18T00:53:22.424Z,13.20
2018-06-18T00:56:02.190Z,13.20
2018-06-18T01:00:58.768Z,13.20
2018-06-18T01:03:27.286Z,13.20
2018-06-18T01:05:55.870Z,13.20
2018-06-18T01:08:24.497Z,13.30
2018-06-18T01:10:53.066Z,13.30
2018-06-18T01:13:21.566Z,13.40
2018-06-18T01:15:50.108Z,13.40
2018-06-18T01:18:18.900Z,13.40
2018-06-18T01:20:47.356Z,13.40
2018-06-18T01:23:54.084Z,13.50
2018-06-18T01:26:22.670Z,13.60
2018-06-18T01:28:51.148Z,13.60
2018-06-18T01:31:19.623Z,13.60
2018-06-18T01:33:48.521Z,13.70
2018-06-18T01:36:16.988Z,13.70
2018-06-18T01:38:45.474Z,13.70
2018-06-18T01:41:13.966Z,13.70
2018-06-18T01:43:42.442Z,13.80
2018-06-18T01:46:10.977Z,13.80
2018-06-18T01:48:39.466Z,13.80
2018-06-18T01:51:08.038Z,13.80
2018-06-18T01:56:04.854Z,13.90
2018-06-18T01:58:33.470Z,13.90
2018-06-18T02:01:02.014Z,13.90
2018-06-18T02:03:30.548Z,14.00
2018-06-18T02:05:59.078Z,14.00
2018-06-18T02:08:27.609Z,14.00
2018-06-18T02:10:56.259Z,14.00
2018-06-18T02:13:24.877Z,14.00
2018-06-18T02:15:53.376Z,14.00
2018-06-18T02:20:49.998Z,14.00
2018-06-18T02:23:18.506Z,14.00
2018-06-18T02:25:46.971Z,14.00
2018-06-18T02:28:20.766Z,14.00
2018-06-18T02:30:54.617Z,14.00
2018-06-18T02:33:28.385Z,14.00
2018-06-18T02:36:02.110Z,13.90
2018-06-18T02:38:32.726Z,13.90
2018-06-18T02:41:01.226Z,13.90
2018-06-18T02:43:29.679Z,13.90
2018-06-18T02:45:58.207Z,13.90
2018-06-18T02:50:54.864Z,13.80
2018-06-18T02:53:23.350Z,13.70
2018-06-18T02:55:52.518Z,13.70
2018-06-18T02:58:20.977Z,13.70
2018-06-18T03:00:49.430Z,13.70
2018-06-18T03:05:46.038Z,13.60
2018-06-18T03:08:14.534Z,13.60
2018-06-18T03:10:43.001Z,13.60
2018-06-18T03:13:11.614Z,13.50
2018-06-18T03:15:40.156Z,13.50
2018-06-18T03:18:12.824Z,13.50
2018-06-18T03:20:46.596Z,13.60
2018-06-18T03:23:20.285Z,13.60
2018-06-18T03:25:54.135Z,13.60
2018-06-18T03:28:27.790Z,13.60
2018-06-18T03:30:56.322Z,13.60
2018-06-18T03:33:24.866Z,13.70
2018-06-18T03:35:53.359Z,13.80
2018-06-18T03:38:21.878Z,13.90
2018-06-18T03:40:50.454Z,14.00
2018-06-18T03:43:19.062Z,14.10
2018-06-18T03:45:47.541Z,14.20
2018-06-18T03:48:15.978Z,14.40
2018-06-18T03:50:44.442Z,14.50
2018-06-18T03:53:14.762Z,14.50
2018-06-18T03:55:48.650Z,14.60
2018-06-18T03:58:17.388Z,14.70
2018-06-18T04:03:00.245Z,14.70
2018-06-18T04:05:34.127Z,14.80
2018-06-18T04:08:09.896Z,14.80
2018-06-18T04:10:44.192Z,14.80
2018-06-18T04:13:12.675Z,14.80
2018-06-18T04:15:41.292Z,14.80
2018-06-18T04:18:09.810Z,14.80
2018-06-18T04:20:44.604Z,14.70
2018-06-18T04:23:13.110Z,14.70
2018-06-18T04:25:41.695Z,14.60
2018-06-18T04:28:10.395Z,14.60
2018-06-18T04:30:38.924Z,14.60
2018-06-18T04:33:07.990Z,14.50
2018-06-18T04:35:36.442Z,14.40
2018-06-18T04:38:05.116Z,14.40
2018-06-18T04:43:07.145Z,14.30
2018-06-18T04:45:41.190Z,14.20
2018-06-18T04:48:14.963Z,14.20
2018-06-18T04:50:48.818Z,14.20
2018-06-18T04:55:45.518Z,14.40
2018-06-18T04:58:14.015Z,14.40
2018-06-18T05:00:59.441Z,14.50
2018-06-18T05:03:28.062Z,14.60
2018-06-18T05:05:56.555Z,14.70
2018-06-18T05:08:44.485Z,14.80
2018-06-18T05:11:12.907Z,14.90
2018-06-18T05:13:41.356Z,15.00
2018-06-18T05:16:10.115Z,15.10
2018-06-18T05:21:06.718Z,15.20
2018-06-18T05:23:35.270Z,15.30
2018-06-18T05:26:03.748Z,15.30
2018-06-18T05:28:32.204Z,15.40
2018-06-18T05:31:00.733Z,15.40
2018-06-18T05:33:29.174Z,15.50
2018-06-18T05:35:57.626Z,15.50
2018-06-18T05:38:35.464Z,15.50
2018-06-18T05:41:03.963Z,15.60
2018-06-18T05:43:32.598Z,15.70
2018-06-18T05:46:01.275Z,15.70
2018-06-18T05:48:29.762Z,15.80
2018-06-18T05:50:58.286Z,15.80
2018-06-18T05:53:26.754Z,15.80
2018-06-18T05:55:55.336Z,15.90
2018-06-18T05:58:23.949Z,16.00
2018-06-18T06:03:20.748Z,16.20
2018-06-18T06:05:49.174Z,16.20
2018-06-18T06:08:17.662Z,16.30
2018-06-18T06:10:46.118Z,16.30
2018-06-18T06:13:14.570Z,16.40
2018-06-18T06:15:43.107Z,16.40
2018-06-18T06:18:11.569Z,16.50
2018-06-18T06:20:47.115Z,16.70
2018-06-18T06:23:15.575Z,16.80
2018-06-18T06:25:44.058Z,16.90
2018-06-18T06:28:12.562Z,17.00
2018-06-18T06:30:41.139Z,17.20
2018-06-18T06:33:09.714Z,17.40
2018-06-18T06:35:40.227Z,17.70
2018-06-18T06:38:08.711Z,17.70
2018-06-18T06:40:37.234Z,17.80
2018-06-18T06:43:06.102Z,17.80
2018-06-18T06:45:34.679Z,18.00
2018-06-18T06:48:03.171Z,18.20
2018-06-18T06:50:31.854Z,18.40
2018-06-18T06:53:00.314Z,18.40
2018-06-18T06:55:29.265Z,18.40
2018-06-18T06:57:57.777Z,18.40
2018-06-18T07:00:26.278Z,18.40
2018-06-18T07:02:54.758Z,18.40
2018-06-18T07:05:23.255Z,18.50
2018-06-18T07:07:51.701Z,18.50
2018-06-18T07:10:20.208Z,18.50
2018-06-18T07:12:48.766Z,18.50
2018-06-18T07:15:17.259Z,18.50
2018-06-18T07:17:45.765Z,18.60
2018-06-18T07:20:14.435Z,18.50
2018-06-18T07:22:42.920Z,18.50
2018-06-18T07:25:11.498Z,18.50
2018-06-18T07:27:39.978Z,18.40
2018-06-18T07:30:08.717Z,18.50
2018-06-18T07:32:37.182Z,18.40
2018-06-18T07:35:05.806Z,18.40
2018-06-18T07:37:34.266Z,18.40
2018-06-18T07:40:02.830Z,18.40
2018-06-18T07:42:31.387Z,18.30
2018-06-18T07:44:59.871Z,18.30
2018-06-18T07:47:28.402Z,18.20
2018-06-18T07:49:57.030Z,18.10
2018-06-18T07:52:25.494Z,18.00
2018-06-18T07:54:53.973Z,18.10
2018-06-18T07:57:22.502Z,18.30
2018-06-18T07:59:50.956Z,18.50
2018-06-18T08:02:20.466Z,18.60
2018-06-18T08:04:49.110Z,18.70
2018-06-18T08:07:17.610Z,18.90
2018-06-18T08:09:46.257Z,19.10
2018-06-18T08:12:14.900Z,19.30
2018-06-18T08:14:43.518Z,19.40
2018-06-18T08:17:12.000Z,19.40
2018-06-18T08:19:40.546Z,19.50
2018-06-18T08:22:09.058Z,19.70
2018-06-18T08:27:05.970Z,19.90
2018-06-18T08:29:34.485Z,19.90
2018-06-18T08:32:02.986Z,20.00
2018-06-18T08:34:31.618Z,20.10
2018-06-18T08:37:00.120Z,20.00
2018-06-18T08:39:28.766Z,19.90
2018-06-18T08:41:57.343Z,19.80
2018-06-18T08:44:25.889Z,19.80
2018-06-18T08:46:54.481Z,19.90
2018-06-18T08:49:23.010Z,19.90
2018-06-18T08:51:56.775Z,19.90
2018-06-18T08:54:30.613Z,19.90
2018-06-18T08:57:04.430Z,19.90
2018-06-18T08:59:38.279Z,20.00
2018-06-18T09:02:06.806Z,20.10
2018-06-18T09:04:40.601Z,20.20
2018-06-18T09:07:15.454Z,20.20
2018-06-18T09:09:45.066Z,20.20
2018-06-18T09:12:13.566Z,20.30
2018-06-18T09:21:27.146Z,20.50
2018-06-18T09:23:55.686Z,20.90
2018-06-18T09:26:24.511Z,21.00
2018-06-18T09:28:53.198Z,21.10
2018-06-18T09:31:21.723Z,21.20
2018-06-18T09:33:50.197Z,21.20
2018-06-18T09:36:18.725Z,21.20
2018-06-18T09:38:47.194Z,21.10
2018-06-18T09:41:15.670Z,21.10
2018-06-18T09:43:44.354Z,21.00
2018-06-18T09:46:12.834Z,21.00
2018-06-18T09:48:46.982Z,21.10
2018-06-18T09:53:54.504Z,21.20
2018-06-18T09:59:01.827Z,21.20
2018-06-18T10:01:33.898Z,21.10
2018-06-18T10:04:04.017Z,21.20
2018-06-18T10:06:35.565Z,21.20
2018-06-18T10:09:06.952Z,21.30
2018-06-18T10:11:36.125Z,21.30
2018-06-18T10:14:05.867Z,21.30
2018-06-18T10:16:34.398Z,21.30
2018-06-18T10:19:02.890Z,21.30
2018-06-18T10:21:31.386Z,21.40
2018-06-18T10:23:59.957Z,21.40
2018-06-18T10:28:56.571Z,21.10
2018-06-18T10:31:25.172Z,21.10
2018-06-18T10:33:59.177Z,21.20
2018-06-18T10:36:32.886Z,21.50
2018-06-18T10:39:06.572Z,21.80
2018-06-18T10:41:40.461Z,22.00
2018-06-18T10:44:09.091Z,22.20
2018-06-18T10:46:37.559Z,22.40
2018-06-18T10:49:06.157Z,22.60
2018-06-18T10:51:34.599Z,22.60
2018-06-18T10:54:03.210Z,22.70
2018-06-18T10:56:31.938Z,22.80
2018-06-18T11:01:33.111Z,22.90
2018-06-18T11:04:02.622Z,23.10
2018-06-18T11:06:32.984Z,23.10
2018-06-18T11:09:01.508Z,23.20
2018-06-18T11:13:58.765Z,23.10
2018-06-18T11:16:27.509Z,23.10
2018-06-18T11:19:01.198Z,23.20
2018-06-18T11:21:35.123Z,23.20
2018-06-18T11:24:09.018Z,23.20
2018-06-18T11:26:42.955Z,23.10
2018-06-18T11:29:11.515Z,23.00
2018-06-18T11:31:40.074Z,22.90
2018-06-18T11:34:08.602Z,23.00
2018-06-18T11:36:37.103Z,23.00
2018-06-18T11:39:07.916Z,23.10
2018-06-18T11:41:36.465Z,23.00
2018-06-18T11:44:05.286Z,22.90
2018-06-18T11:49:02.290Z,22.70
2018-06-18T11:51:30.955Z,22.60
2018-06-18T11:53:59.439Z,22.50
2018-06-18T11:56:28.121Z,22.50
2018-06-18T11:59:01.963Z,22.30
2018-06-18T12:01:35.801Z,22.20
2018-06-18T12:04:09.794Z,22.10
2018-06-18T12:06:43.562Z,21.90
2018-06-18T12:09:17.405Z,21.80
2018-06-18T12:11:46.643Z,21.70
2018-06-18T12:16:43.991Z,21.70
2018-06-18T12:19:12.533Z,21.60
2018-06-18T12:21:41.034Z,21.50
2018-06-18T12:24:09.686Z,21.40
2018-06-18T12:26:38.290Z,21.40
2018-06-18T12:29:06.773Z,21.30
2018-06-18T12:31:35.271Z,21.40
2018-06-18T12:34:03.826Z,21.50
2018-06-18T12:36:32.428Z,21.70
2018-06-18T12:39:01.075Z,22.10
2018-06-18T12:43:59.459Z,22.50
2018-06-18T12:46:33.399Z,22.70
2018-06-18T12:49:07.122Z,22.80
2018-06-18T12:51:40.998Z,22.80
2018-06-18T12:54:14.638Z,22.80
2018-06-18T12:56:48.466Z,22.70
2018-06-18T12:59:17.109Z,22.70
2018-06-18T13:01:52.018Z,22.60
2018-06-18T13:04:20.582Z,22.60
2018-06-18T13:06:49.049Z,22.50
2018-06-18T13:09:17.566Z,22.50
2018-06-18T13:11:46.039Z,22.50
2018-06-18T13:14:14.651Z,22.50
2018-06-18T13:16:43.954Z,22.70
2018-06-18T13:19:12.438Z,22.80
2018-06-18T13:21:41.118Z,23.00
2018-06-18T13:24:09.706Z,23.20
2018-06-18T13:26:38.308Z,23.30
2018-06-18T13:31:35.266Z,23.30
2018-06-18T13:34:03.966Z,23.40
2018-06-18T13:36:32.419Z,23.40
2018-06-18T13:39:06.274Z,23.40
2018-06-18T13:41:39.943Z,23.40
2018-06-18T13:44:13.805Z,23.50
2018-06-18T13:46:47.433Z,23.40
2018-06-18T13:49:15.934Z,23.40
2018-06-18T13:51:44.414Z,23.30
2018-06-18T13:54:12.931Z,23.30
2018-06-18T13:56:41.502Z,23.30
2018-06-18T13:59:09.986Z,23.30
2018-06-18T14:04:06.770Z,23.40
2018-06-18T14:08:04.438Z,23.40
2018-06-18T14:10:32.949Z,23.40
2018-06-18T14:13:01.394Z,23.40
2018-06-18T14:15:29.971Z,23.40
2018-06-18T14:20:27.462Z,23.30
2018-06-18T14:22:55.981Z,23.40
2018-06-18T14:25:24.542Z,23.40
2018-06-18T14:27:53.021Z,23.40
2018-06-18T14:30:26.948Z,23.60
2018-06-18T14:33:00.730Z,23.70
2018-06-18T14:35:34.476Z,23.80
2018-06-18T14:38:08.140Z,23.90
2018-06-18T14:40:36.896Z,23.80
2018-06-18T14:43:05.922Z,23.80
2018-06-18T14:45:34.453Z,23.80
2018-06-18T14:48:03.122Z,23.90
2018-06-18T14:50:31.654Z,24.00
2018-06-18T14:53:00.163Z,24.10
2018-06-18T14:55:28.690Z,24.10
2018-06-18T14:57:57.258Z,24.10
2018-06-18T15:00:28.452Z,24.00
2018-06-18T15:02:57.047Z,24.00
2018-06-18T15:05:28.299Z,24.00
2018-06-18T15:07:56.944Z,24.10
2018-06-18T15:10:29.699Z,24.20
2018-06-18T15:12:58.302Z,24.00
2018-06-18T15:15:32.277Z,23.80
2018-06-18T15:18:00.848Z,23.60
2018-06-18T15:20:29.448Z,23.50
2018-06-18T15:23:01.177Z,23.50
2018-06-18T15:25:40.451Z,23.40
2018-06-18T15:28:09.106Z,23.40
2018-06-18T15:30:37.624Z,23.30
2018-06-18T15:33:06.182Z,23.20
2018-06-18T15:35:34.766Z,23.00
2018-06-18T15:38:04.000Z,22.80
2018-06-18T15:40:32.502Z,22.70
2018-06-18T15:43:01.446Z,22.50
2018-06-18T15:45:30.051Z,22.40
2018-06-18T15:50:26.968Z,22.00
2018-06-18T15:52:55.523Z,21.80
2018-06-18T15:55:24.058Z,21.70
2018-06-18T15:57:52.601Z,21.60
2018-06-18T16:00:21.083Z,21.40
2018-06-18T16:02:49.799Z,21.30
2018-06-18T16:05:18.606Z,21.30
2018-06-18T16:07:47.159Z,21.30
2018-06-18T16:10:15.655Z,21.10
2018-06-18T16:12:44.311Z,21.00
2018-06-18T16:15:13.083Z,20.90
2018-06-18T16:17:41.602Z,20.90
2018-06-18T16:20:10.203Z,20.90
2018-06-18T16:22:38.707Z,20.90
2018-06-18T16:25:07.229Z,20.90
2018-06-18T16:27:35.730Z,20.90
2018-06-18T16:30:04.696Z,21.00
2018-06-18T16:32:33.234Z,21.00
2018-06-18T16:35:01.804Z,21.10
2018-06-18T16:37:30.438Z,21.10
2018-06-18T16:39:58.941Z,21.20
2018-06-18T16:42:27.595Z,21.30
2018-06-18T16:44:56.198Z,21.30
2018-06-18T16:47:24.707Z,21.40
2018-06-18T16:49:53.313Z,21.40
2018-06-18T16:52:21.934Z,21.50
2018-06-18T16:54:50.431Z,21.40
2018-06-18T16:57:18.981Z,21.30
2018-06-18T16:59:47.826Z,21.20
2018-06-18T17:02:16.467Z,21.20
2018-06-18T17:04:45.217Z,21.10
2018-06-18T17:07:13.806Z,20.90
2018-06-18T17:09:42.318Z,20.90
2018-06-18T17:12:10.890Z,20.70
2018-06-18T17:14:39.426Z,20.60
2018-06-18T17:17:08.034Z,20.60
2018-06-18T17:19:36.564Z,20.50
2018-06-18T17:22:05.225Z,20.40
2018-06-18T17:24:33.913Z,20.30
2018-06-18T17:27:02.592Z,20.20
2018-06-18T17:29:31.397Z,20.10
2018-06-18T17:32:00.014Z,20.10
2018-06-18T17:34:28.613Z,20.10
2018-06-18T17:36:57.100Z,20.00
2018-06-18T17:39:25.677Z,20.00
2018-06-18T17:41:54.210Z,19.90
2018-06-18T17:44:22.709Z,19.90
2018-06-18T17:46:51.203Z,20.00
2018-06-18T17:49:19.727Z,20.00
2018-06-18T17:51:48.190Z,20.00
2018-06-18T17:54:16.687Z,20.00
2018-06-18T17:56:45.242Z,19.90
2018-06-18T17:59:13.750Z,19.80
2018-06-18T18:01:42.232Z,19.90
2018-06-18T18:04:10.779Z,19.80
2018-06-18T18:06:39.372Z,19.80
2018-06-18T18:09:09.038Z,19.80
2018-06-18T18:14:05.921Z,19.70
2018-06-18T18:16:34.417Z,19.60
2018-06-18T18:19:03.985Z,19.60
2018-06-18T18:21:32.650Z,19.50
2018-06-18T18:24:01.194Z,19.50
2018-06-18T18:26:29.818Z,19.40
2018-06-18T18:28:58.282Z,19.40
2018-06-18T18:31:26.876Z,19.40
2018-06-18T18:33:55.502Z,19.30
2018-06-18T18:36:24.102Z,19.30
2018-06-18T18:38:52.571Z,19.20
2018-06-18T18:41:21.150Z,19.10
2018-06-18T18:43:49.750Z,19.10
2018-06-18T18:46:18.245Z,19.10
2018-06-18T18:48:46.918Z,19.10
2018-06-18T18:51:15.545Z,19.00
2018-06-18T18:53:44.007Z,19.00
2018-06-18T18:56:23.793Z,19.00
2018-06-18T18:59:26.739Z,18.90
2018-06-18T19:01:55.369Z,18.90
2018-06-18T19:04:26.775Z,18.80
2018-06-18T19:06:55.323Z,18.80
2018-06-18T19:09:26.646Z,18.70
2018-06-18T19:11:55.232Z,18.70
2018-06-18T19:14:23.734Z,18.70
2018-06-18T19:16:52.406Z,18.70
2018-06-18T19:19:22.257Z,18.60
2018-06-18T19:21:50.830Z,18.70
2018-06-18T19:24:19.441Z,18.70
2018-06-18T19:26:47.950Z,18.60
2018-06-18T19:29:16.439Z,18.60
2018-06-18T19:31:45.618Z,18.60
2018-06-18T19:34:16.342Z,18.60
2018-06-18T19:39:22.289Z,18.60
2018-06-18T19:41:50.810Z,18.60
2018-06-18T19:51:03.658Z,18.50
2018-06-18T19:53:36.689Z,18.50
2018-06-18T19:56:05.285Z,18.50
2018-06-18T19:58:33.778Z,18.50
2018-06-18T20:01:04.566Z,18.50
2018-06-18T20:03:33.254Z,18.50
2018-06-18T20:06:01.899Z,18.50
2018-06-18T20:08:31.267Z,18.50
2018-06-18T20:10:59.809Z,18.50
2018-06-18T20:13:28.477Z,18.50
2018-06-18T20:15:57.034Z,18.40
2018-06-18T20:18:25.695Z,18.40
2018-06-18T20:20:54.282Z,18.40
2018-06-18T20:23:24.510Z,18.50
2018-06-18T20:26:11.909Z,18.40
2018-06-18T20:28:40.419Z,18.40
2018-06-18T20:31:08.934Z,18.30
2018-06-18T20:33:41.210Z,18.40
2018-06-18T20:36:11.792Z,18.30
2018-06-18T20:38:40.376Z,18.30
2018-06-18T20:43:45.198Z,18.40
2018-06-18T20:46:13.698Z,18.40
2018-06-18T20:48:42.657Z,18.40
2018-06-18T20:51:11.153Z,18.30
2018-06-18T20:53:39.712Z,18.30
2018-06-18T20:56:08.219Z,18.30
2018-06-18T20:58:36.765Z,18.40
2018-06-18T21:01:05.927Z,18.30
2018-06-18T21:03:34.454Z,18.40
2018-06-18T21:06:02.969Z,18.30
2018-06-18T21:08:31.518Z,18.30
2018-06-18T21:11:00.122Z,18.30
2018-06-18T21:13:28.739Z,18.30
2018-06-18T21:15:57.492Z,18.20
2018-06-18T21:18:25.954Z,18.20
2018-06-18T21:20:54.410Z,18.10
2018-06-18T21:23:22.892Z,18.10
2018-06-18T21:25:51.361Z,18.10
2018-06-18T21:28:19.838Z,18.00
2018-06-18T21:30:48.715Z,18.10
2018-06-18T21:33:17.195Z,18.00
2018-06-18T21:35:45.833Z,17.90
2018-06-18T21:38:14.356Z,17.90
2018-06-18T21:40:42.839Z,17.80
2018-06-18T21:43:11.562Z,17.80
2018-06-18T21:45:40.175Z,17.70
2018-06-18T21:50:36.789Z,17.50
2018-06-18T21:53:05.390Z,17.50
2018-06-18T21:55:33.850Z,17.40
2018-06-18T21:58:02.455Z,17.40
2018-06-18T22:00:33.425Z,17.40
2018-06-18T22:03:01.885Z,17.30
2018-06-18T22:05:30.362Z,17.30
2018-06-18T22:07:59.235Z,17.30
2018-06-18T22:10:27.844Z,17.20
2018-06-18T22:12:56.476Z,17.20
2018-06-18T22:15:25.170Z,17.30
2018-06-18T22:17:53.850Z,17.30
2018-06-18T22:20:22.544Z,17.30
2018-06-18T22:22:51.101Z,17.30
2018-06-18T22:30:16.068Z,17.30
2018-06-18T22:32:44.563Z,17.30
2018-06-18T22:35:13.054Z,17.20
2018-06-18T22:37:41.545Z,17.20
2018-06-18T22:40:10.139Z,17.20
2018-06-18T22:42:38.718Z,17.20
2018-06-18T22:45:09.486Z,17.20
2018-06-18T22:47:37.954Z,17.20
2018-06-18T22:50:06.850Z,17.20
2018-06-18T22:52:35.454Z,17.20
2018-06-18T22:55:03.985Z,17.20
2018-06-18T22:57:32.475Z,17.20
2018-06-18T23:00:00.986Z,17.20
2018-06-18T23:02:31.345Z,17.20
2018-06-18T23:04:59.917Z,17.20
2018-06-18T23:07:28.454Z,17.20
2018-06-18T23:09:56.989Z,17.20
2018-06-18T23:12:35.439Z,17.20
2018-06-18T23:15:04.070Z,17.20
2018-06-18T23:17:32.601Z,17.20
2018-06-18T23:20:01.258Z,17.20
2018-06-18T23:22:29.822Z,17.20
2018-06-18T23:24:58.517Z,17.20
2018-06-18T23:27:27.172Z,17.10
2018-06-18T23:29:55.971Z,17.20
2018-06-18T23:32:24.443Z,17.10
2018-06-18T23:34:53.106Z,17.10
2018-06-18T23:37:21.570Z,17.10
2018-06-18T23:39:50.080Z,17.10
2018-06-18T23:42:18.826Z,17.10
2018-06-18T23:44:47.396Z,17.10
2018-06-18T23:47:15.869Z,17.10
2018-06-18T23:49:44.681Z,17.10
2018-06-18T23:52:13.258Z,17.10
2018-06-18T23:54:41.818Z,17.10
2018-06-18T23:57:10.347Z,17.10
2018-06-18T23:59:39.166Z,17.10
